Time;durP1;ratioP1;P1;durP2;ratioP2;P2;SDS_P1;SDS_P2;PMS_P1;PMS_P2;Temp;Humidity;BMP_temperature;BMP_pressure;BME280_temperature;BME280_humidity;BME280_pressure;Samples;Min_cycle;Max_cycle;Signal;HPM_P1;HPM_P2
2022/08/29 00:01:08;;;;;;;0.60;0.60;;;11.30;99.90;;;;;;5118841;27;20195;-67
2022/08/29 00:03:35;;;;;;;0.60;0.60;;;11.40;99.90;;;;;;5137127;27;20235;-68
2022/08/29 00:06:01;;;;;;;0.50;0.50;;;11.40;99.90;;;;;;5137372;27;20574;-68
2022/08/29 00:08:27;;;;;;;0.50;0.50;;;11.40;99.90;;;;;;5137050;27;20259;-67
2022/08/29 00:10:53;;;;;;;0.60;0.60;;;11.20;99.90;;;;;;5137094;27;20274;-67
2022/08/29 00:13:19;;;;;;;0.60;0.60;;;11.10;99.90;;;;;;5136707;27;20324;-68
2022/08/29 00:15:45;;;;;;;0.65;0.65;;;10.90;99.90;;;;;;5136672;27;20190;-68
2022/08/29 00:18:13;;;;;;;0.60;0.60;;;10.70;99.90;;;;;;5136952;27;20681;-68
2022/08/29 00:20:39;;;;;;;0.60;0.60;;;10.50;99.90;;;;;;5136620;27;20688;-67
2022/08/29 00:23:06;;;;;;;0.65;0.65;;;10.50;99.90;;;;;;5137247;27;20661;-67
2022/08/29 00:25:32;;;;;;;0.60;0.60;;;10.50;99.90;;;;;;5135827;27;20663;-68
2022/08/29 00:27:58;;;;;;;0.50;0.50;;;10.50;99.90;;;;;;5115974;28;20291;-68
2022/08/29 00:30:24;;;;;;;0.60;0.60;;;10.50;99.90;;;;;;5115904;28;20658;-67
2022/08/29 00:32:51;;;;;;;0.55;0.55;;;10.50;99.90;;;;;;5097645;28;20202;-67
2022/08/29 00:35:23;;;;;;;1.52;0.70;;;10.40;99.90;;;;;;5115719;28;20191;-68
2022/08/29 00:37:50;;;;;;;0.60;0.60;;;10.40;99.90;;;;;;5115783;28;20686;-67
2022/08/29 00:40:20;;;;;;;0.63;0.63;;;10.30;99.90;;;;;;5097580;28;20199;-67
2022/08/29 00:42:46;;;;;;;0.57;0.57;;;10.20;99.90;;;;;;5115753;28;20192;-67
2022/08/29 00:45:14;;;;;;;0.60;0.60;;;10.10;99.90;;;;;;5115946;28;20240;-67
2022/08/29 00:47:47;;;;;;;0.60;0.60;;;10.10;99.90;;;;;;5115517;28;20215;-67
2022/08/29 00:50:28;;;;;;;0.60;0.60;;;10.10;99.90;;;;;;5132773;27;20195;-68
2022/08/29 00:52:56;;;;;;;0.80;0.80;;;10.00;99.90;;;;;;5135287;27;20197;-67
2022/08/29 00:55:25;;;;;;;0.80;0.80;;;10.00;99.90;;;;;;5136395;27;20262;-68
2022/08/29 00:57:56;;;;;;;0.60;0.60;;;10.00;99.90;;;;;;5136371;27;20641;-68
2022/08/29 01:00:24;;;;;;;0.50;0.50;;;10.00;99.90;;;;;;5135695;27;20611;-71
2022/08/29 01:02:50;;;;;;;0.60;0.60;;;9.90;99.90;;;;;;5136352;27;20566;-68
2022/08/29 01:05:18;;;;;;;0.60;0.60;;;9.80;99.90;;;;;;5136092;27;20606;-68
2022/08/29 01:07:45;;;;;;;0.50;0.50;;;9.70;99.90;;;;;;5135916;27;20199;-68
2022/08/29 01:12:14;;;;;;;0.60;0.60;;;9.70;99.90;;;;;;5136124;27;20193;-68
2022/08/29 01:12:59;;;;;;;0.70;0.70;;;9.70;99.90;;;;;;5115063;28;20562;-68
2022/08/29 01:15:26;;;;;;;0.60;0.60;;;9.70;99.90;;;;;;5115277;28;20192;-68
2022/08/29 01:17:53;;;;;;;1.05;0.85;;;9.80;99.90;;;;;;5115314;28;20195;-68
2022/08/29 01:20:39;;;;;;;0.60;0.60;;;9.70;99.90;;;;;;5114897;28;20282;-68
2022/08/29 01:23:20;;;;;;;0.60;0.60;;;9.70;99.90;;;;;;5114729;28;20281;-68
2022/08/29 01:25:48;;;;;;;0.50;0.50;;;9.70;99.90;;;;;;5117275;27;20653;-68
2022/08/29 01:28:21;;;;;;;0.60;0.60;;;9.60;99.90;;;;;;5135410;27;20226;-68
2022/08/29 01:31:02;;;;;;;0.70;0.70;;;9.60;99.90;;;;;;5135446;27;20205;-68
2022/08/29 01:33:55;;;;;;;0.60;0.60;;;9.60;99.90;;;;;;5135315;27;20191;-68
2022/08/29 01:36:52;;;;;;;0.60;0.60;;;9.70;99.90;;;;;;5135155;27;20231;-68
2022/08/29 01:39:20;;;;;;;0.60;0.60;;;9.70;99.90;;;;;;5135084;27;20223;-68
2022/08/29 01:41:47;;;;;;;0.55;0.55;;;9.70;99.90;;;;;;5135651;27;20194;-68
2022/08/29 01:44:18;;;;;;;1.38;1.00;;;9.70;99.90;;;;;;5116950;27;20198;-68
2022/08/29 01:46:45;;;;;;;0.60;0.60;;;9.60;99.90;;;;;;5135096;27;20691;-68
2022/08/29 01:49:12;;;;;;;0.60;0.60;;;9.60;99.90;;;;;;5135133;27;20626;-68
2022/08/29 01:51:38;;;;;;;0.60;0.60;;;9.60;99.90;;;;;;5116933;27;20198;-68
2022/08/29 01:54:06;;;;;;;0.60;0.60;;;9.70;99.90;;;;;;5116732;27;20182;-69
2022/08/29 01:56:33;;;;;;;0.60;0.60;;;9.70;99.90;;;;;;5116647;27;20205;-68
2022/08/29 01:59:00;;;;;;;0.70;0.70;;;9.70;99.90;;;;;;5135045;27;20187;-68
2022/08/29 02:01:33;;;;;;;0.80;0.80;;;9.70;99.90;;;;;;5133602;27;20187;-68
2022/08/29 02:03:59;;;;;;;1.40;1.05;;;9.80;99.90;;;;;;5134681;27;20194;-68
2022/08/29 02:06:26;;;;;;;0.60;0.60;;;9.80;99.90;;;;;;5134192;27;20190;-68
2022/08/29 02:08:52;;;;;;;0.70;0.70;;;9.70;99.90;;;;;;5134734;27;20222;-68
2022/08/29 02:11:19;;;;;;;0.60;0.60;;;9.70;99.90;;;;;;5135123;27;20194;-69
2022/08/29 02:13:48;;;;;;;0.60;0.60;;;9.70;99.90;;;;;;5134812;27;20197;-68
2022/08/29 02:16:16;;;;;;;0.70;0.70;;;9.60;99.90;;;;;;5134848;27;20190;-68
2022/08/29 02:18:42;;;;;;;0.70;0.70;;;9.70;99.90;;;;;;5135008;27;20270;-68
2022/08/29 02:21:09;;;;;;;0.63;0.63;;;9.80;99.90;;;;;;5116290;28;20266;-68
2022/08/29 02:23:36;;;;;;;0.70;0.70;;;9.80;99.90;;;;;;5134746;27;20273;-68
2022/08/29 02:26:03;;;;;;;0.60;0.60;;;9.80;99.90;;;;;;5133538;27;20194;-69
2022/08/29 02:28:30;;;;;;;0.70;0.70;;;9.70;99.90;;;;;;5134579;28;20205;-68
2022/08/29 02:30:57;;;;;;;0.60;0.60;;;9.80;99.90;;;;;;5134706;28;20190;-68
2022/08/29 02:33:24;;;;;;;0.60;0.60;;;9.80;99.90;;;;;;5115958;28;20218;-68
2022/08/29 02:35:49;;;;;;;0.60;0.60;;;9.80;99.90;;;;;;5134807;28;20240;-68
2022/08/29 02:38:15;;;;;;;0.60;0.60;;;9.70;99.90;;;;;;5134502;28;20218;-68
2022/08/29 02:40:42;;;;;;;0.80;0.80;;;9.70;99.90;;;;;;5133508;28;20202;-69
2022/08/29 02:43:08;;;;;;;0.65;0.65;;;9.60;99.90;;;;;;5134053;28;20786;-67
2022/08/29 02:45:39;;;;;;;0.70;0.70;;;9.70;99.90;;;;;;5133876;28;20285;-68
2022/08/29 02:48:05;;;;;;;0.60;0.60;;;9.60;99.90;;;;;;5134029;28;20213;-68
2022/08/29 02:50:31;;;;;;;0.70;0.70;;;9.60;99.90;;;;;;5133807;28;20773;-69
2022/08/29 02:52:57;;;;;;;0.55;0.55;;;9.60;99.90;;;;;;5115602;28;20324;-67
2022/08/29 02:55:24;;;;;;;0.60;0.60;;;9.50;99.90;;;;;;5133843;28;20183;-69
2022/08/29 02:57:51;;;;;;;0.60;0.60;;;9.50;99.90;;;;;;5133958;28;20191;-68
2022/08/29 03:00:21;;;;;;;0.82;0.82;;;9.50;99.90;;;;;;5133892;28;20191;-68
2022/08/29 03:02:48;;;;;;;0.60;0.60;;;9.40;99.90;;;;;;5136355;27;20561;-68
2022/08/29 03:05:20;;;;;;;0.60;0.60;;;9.40;99.90;;;;;;5135731;27;20673;-68
2022/08/29 03:07:46;;;;;;;0.60;0.60;;;9.30;99.90;;;;;;5133775;28;20259;-68
2022/08/29 03:10:13;;;;;;;0.60;0.60;;;9.30;99.90;;;;;;5134009;28;20657;-68
2022/08/29 03:12:39;;;;;;;0.60;0.60;;;9.30;99.90;;;;;;5115268;28;20194;-68
2022/08/29 03:15:06;;;;;;;0.60;0.60;;;9.20;99.90;;;;;;5115362;28;20198;-68
2022/08/29 03:17:32;;;;;;;1.17;1.08;;;9.10;99.90;;;;;;5118931;27;20194;-68
2022/08/29 03:19:58;;;;;;;0.70;0.70;;;9.10;99.90;;;;;;5137722;27;20264;-68
2022/08/29 03:22:25;;;;;;;0.60;0.60;;;9.10;99.90;;;;;;5137187;27;20198;-68
2022/08/29 03:24:50;;;;;;;0.70;0.70;;;9.10;99.90;;;;;;5137503;27;20278;-68
2022/08/29 03:27:18;;;;;;;0.60;0.60;;;9.10;99.90;;;;;;5121875;27;20289;-66
2022/08/29 03:29:44;;;;;;;0.60;0.60;;;9.10;99.90;;;;;;5116410;28;20184;-68
2022/08/29 03:32:10;;;;;;;0.60;0.60;;;9.00;99.90;;;;;;5117057;28;20192;-68
2022/08/29 03:34:36;;;;;;;0.70;0.70;;;9.10;99.90;;;;;;5116779;28;20192;-69
2022/08/29 03:37:02;;;;;;;0.60;0.60;;;9.10;99.90;;;;;;5116642;28;20223;-69
2022/08/29 03:39:28;;;;;;;0.70;0.70;;;9.20;99.90;;;;;;5116571;28;20222;-68
2022/08/29 03:41:54;;;;;;;0.68;0.68;;;9.20;99.90;;;;;;5122645;27;20190;-68
2022/08/29 03:44:20;;;;;;;0.60;0.60;;;9.20;99.90;;;;;;5118489;27;20213;-68
2022/08/29 03:46:46;;;;;;;0.70;0.70;;;9.20;99.90;;;;;;5136991;27;20211;-68
2022/08/29 03:49:12;;;;;;;0.60;0.60;;;9.20;99.90;;;;;;5137098;27;20303;-68
2022/08/29 03:51:38;;;;;;;0.70;0.70;;;9.20;99.90;;;;;;5136801;27;20663;-68
2022/08/29 03:54:05;;;;;;;0.70;0.70;;;9.30;99.90;;;;;;5118662;27;20533;-68
2022/08/29 03:56:32;;;;;;;0.60;0.60;;;9.20;99.90;;;;;;5136873;27;20294;-68
2022/08/29 03:58:57;;;;;;;0.70;0.70;;;9.20;99.90;;;;;;5118561;27;20238;-68
2022/08/29 04:01:27;;;;;;;0.60;0.60;;;9.30;99.90;;;;;;5136476;27;20202;-68
2022/08/29 04:03:54;;;;;;;0.70;0.70;;;9.20;99.90;;;;;;5136954;27;20705;-68
2022/08/29 04:06:22;;;;;;;0.70;0.70;;;9.20;99.90;;;;;;5136422;27;20229;-68
2022/08/29 04:08:49;;;;;;;1.17;0.98;;;9.10;99.90;;;;;;5136465;27;20187;-68
2022/08/29 04:11:16;;;;;;;0.60;0.60;;;9.20;99.90;;;;;;5137481;27;20182;-71
2022/08/29 04:13:42;;;;;;;0.60;0.60;;;9.10;99.90;;;;;;5136542;27;20195;-71
2022/08/29 04:16:10;;;;;;;0.70;0.70;;;9.00;99.90;;;;;;5136804;27;20557;-72
2022/08/29 04:18:36;;;;;;;0.65;0.65;;;9.00;99.90;;;;;;5117802;27;20789;-70
2022/08/29 04:21:03;;;;;;;0.90;0.90;;;9.00;99.90;;;;;;5136634;27;20195;-71
2022/08/29 04:23:29;;;;;;;0.60;0.60;;;9.00;99.90;;;;;;5136431;27;20205;-70
2022/08/29 04:25:54;;;;;;;1.35;1.02;;;9.00;99.90;;;;;;5136051;27;20661;-71
2022/08/29 04:28:20;;;;;;;0.70;0.70;;;9.00;99.90;;;;;;5135895;27;20245;-70
2022/08/29 04:30:48;;;;;;;0.80;0.80;;;9.00;99.90;;;;;;5136398;27;20193;-71
2022/08/29 04:33:13;;;;;;;0.70;0.70;;;9.00;99.90;;;;;;5136358;27;20187;-70
2022/08/29 04:35:39;;;;;;;0.77;0.77;;;9.00;99.90;;;;;;5117610;27;20202;-70
2022/08/29 04:38:05;;;;;;;0.70;0.70;;;9.00;99.90;;;;;;5113972;28;20226;-70
2022/08/29 04:40:35;;;;;;;0.73;0.73;;;9.10;99.90;;;;;;5115610;28;20207;-70
2022/08/29 04:43:01;;;;;;;0.65;0.65;;;9.20;99.90;;;;;;5115670;28;20196;-70
2022/08/29 04:45:27;;;;;;;0.70;0.70;;;9.20;99.90;;;;;;5115386;28;20206;-71
2022/08/29 04:47:53;;;;;;;1.48;1.38;;;9.20;99.90;;;;;;5115044;28;20207;-71
2022/08/29 04:50:21;;;;;;;0.70;0.70;;;9.20;99.90;;;;;;5114863;28;20270;-70
2022/08/29 04:52:47;;;;;;;0.70;0.70;;;9.30;99.90;;;;;;5114174;28;20196;-71
2022/08/29 04:55:15;;;;;;;0.70;0.70;;;9.40;99.90;;;;;;5115402;28;20195;-71
2022/08/29 04:57:41;;;;;;;0.65;0.65;;;9.40;99.90;;;;;;5114974;28;20284;-71
2022/08/29 05:00:12;;;;;;;0.70;0.70;;;9.40;99.90;;;;;;5115441;28;20237;-71
2022/08/29 05:02:39;;;;;;;0.68;0.68;;;9.50;99.90;;;;;;5096771;28;20203;-71
2022/08/29 05:05:06;;;;;;;0.70;0.70;;;9.50;99.90;;;;;;5115281;28;20210;-71
2022/08/29 05:07:32;;;;;;;0.60;0.60;;;9.50;99.90;;;;;;5096600;28;20294;-71
2022/08/29 05:10:05;;;;;;;0.70;0.70;;;9.50;99.90;;;;;;5096953;28;20286;-71
2022/08/29 05:12:32;;;;;;;0.80;0.80;;;9.50;99.90;;;;;;5115034;28;20188;-71
2022/08/29 05:14:58;;;;;;;0.65;0.65;;;9.60;99.90;;;;;;5114933;28;20199;-71
2022/08/29 05:17:25;;;;;;;0.80;0.80;;;9.60;99.90;;;;;;5114817;28;20710;-71
2022/08/29 05:19:51;;;;;;;0.73;0.73;;;9.60;99.90;;;;;;5096623;28;20291;-71
2022/08/29 05:22:21;;;;;;;0.70;0.70;;;9.70;99.90;;;;;;5114917;28;20198;-71
2022/08/29 05:24:48;;;;;;;0.70;0.70;;;9.80;99.90;;;;;;5114662;28;20191;-71
2022/08/29 05:27:17;;;;;;;0.70;0.70;;;9.80;99.90;;;;;;5099870;28;20633;-71
2022/08/29 05:29:45;;;;;;;0.60;0.60;;;9.90;99.90;;;;;;5094154;28;20642;-71
2022/08/29 05:32:13;;;;;;;0.95;0.95;;;9.90;99.90;;;;;;5094216;28;20651;-71
2022/08/29 05:34:41;;;;;;;4.13;1.85;;;10.00;99.90;;;;;;5102950;28;20598;-71
2022/08/29 05:37:14;;;;;;;0.80;0.80;;;10.00;99.90;;;;;;5113853;28;20549;-71
2022/08/29 05:39:40;;;;;;;0.80;0.80;;;10.10;99.90;;;;;;5113075;28;20930;-71
2022/08/29 05:42:07;;;;;;;0.65;0.65;;;10.20;99.90;;;;;;5096131;28;20227;-71
2022/08/29 05:44:34;;;;;;;0.60;0.60;;;10.30;99.90;;;;;;5096099;28;20661;-71
2022/08/29 05:47:00;;;;;;;0.70;0.70;;;10.40;99.90;;;;;;5114391;28;20218;-70
2022/08/29 05:49:26;;;;;;;0.50;0.50;;;10.40;99.90;;;;;;5113987;28;20266;-71
2022/08/29 05:51:55;;;;;;;0.50;0.50;;;10.50;99.90;;;;;;5114105;28;20248;-70
2022/08/29 05:54:22;;;;;;;0.70;0.70;;;10.60;99.90;;;;;;5095943;28;20724;-71
2022/08/29 05:56:48;;;;;;;0.80;0.80;;;10.70;99.90;;;;;;5114374;28;20202;-70
2022/08/29 05:59:15;;;;;;;0.60;0.60;;;10.70;99.90;;;;;;5114180;28;20196;-71
2022/08/29 06:01:41;;;;;;;0.70;0.70;;;10.80;99.90;;;;;;5113937;28;20642;-70
2022/08/29 06:04:07;;;;;;;0.60;0.60;;;10.80;99.90;;;;;;5114288;28;20195;-70
2022/08/29 06:06:33;;;;;;;0.60;0.60;;;11.00;99.90;;;;;;5113857;28;20188;-70
2022/08/29 06:08:59;;;;;;;0.70;0.70;;;11.00;99.90;;;;;;5114127;28;20212;-70
2022/08/29 06:11:28;;;;;;;0.60;0.60;;;11.10;99.90;;;;;;5113631;28;20214;-70
2022/08/29 06:13:54;;;;;;;0.60;0.60;;;11.10;99.90;;;;;;5114032;28;20191;-70
2022/08/29 06:16:22;;;;;;;0.60;0.60;;;11.20;99.90;;;;;;5113748;28;20715;-70
2022/08/29 06:18:48;;;;;;;0.60;0.60;;;11.20;99.90;;;;;;5113949;28;20658;-70
2022/08/29 06:21:14;;;;;;;0.57;0.57;;;11.20;99.90;;;;;;5113179;28;20194;-71
2022/08/29 06:23:41;;;;;;;0.60;0.60;;;11.30;99.90;;;;;;5113760;28;20206;-71
2022/08/29 06:26:08;;;;;;;0.63;0.63;;;11.30;99.90;;;;;;5108435;28;20196;-71
2022/08/29 06:28:36;;;;;;;0.70;0.70;;;11.40;99.90;;;;;;5075132;28;20686;-70
2022/08/29 06:31:10;;;;;;;0.60;0.60;;;11.40;99.90;;;;;;5093576;28;20184;-71
2022/08/29 06:33:36;;;;;;;0.70;0.70;;;11.40;99.90;;;;;;5093311;28;20188;-71
2022/08/29 06:36:03;;;;;;;0.75;0.75;;;11.50;99.90;;;;;;5093621;28;20190;-71
2022/08/29 06:38:30;;;;;;;0.80;0.80;;;11.60;99.90;;;;;;5107220;28;20227;-70
2022/08/29 06:40:55;;;;;;;0.60;0.60;;;11.60;99.90;;;;;;5113700;28;20355;-71
2022/08/29 06:43:21;;;;;;;0.57;0.57;;;11.70;99.90;;;;;;5113382;28;20195;-70
2022/08/29 06:45:47;;;;;;;0.60;0.60;;;11.80;99.90;;;;;;5113821;28;20202;-70
2022/08/29 06:48:13;;;;;;;0.60;0.60;;;12.00;99.90;;;;;;5113448;28;20236;-71
2022/08/29 06:50:40;;;;;;;0.60;0.60;;;12.10;99.90;;;;;;5116215;28;20199;-71
2022/08/29 06:53:09;;;;;;;0.80;0.80;;;12.20;99.90;;;;;;5117868;28;20198;-71
2022/08/29 06:55:35;;;;;;;0.80;0.80;;;12.30;99.90;;;;;;5117596;28;20572;-70
2022/08/29 06:58:01;;;;;;;0.60;0.60;;;12.30;99.90;;;;;;5099561;28;20218;-71
2022/08/29 07:00:27;;;;;;;0.50;0.50;;;12.30;99.90;;;;;;5117531;28;20223;-71
2022/08/29 07:02:53;;;;;;;1.55;0.88;;;12.40;99.90;;;;;;5099068;28;20291;-71
2022/08/29 07:05:20;;;;;;;0.50;0.50;;;12.40;99.90;;;;;;5098585;28;20195;-70
2022/08/29 07:07:46;;;;;;;0.60;0.60;;;12.50;99.90;;;;;;5117423;28;20203;-71
2022/08/29 07:10:13;;;;;;;0.50;0.50;;;12.60;99.90;;;;;;5099263;28;20650;-71
2022/08/29 07:12:42;;;;;;;0.50;0.50;;;12.60;99.90;;;;;;5117120;28;20675;-71
2022/08/29 07:15:08;;;;;;;0.50;0.50;;;12.70;99.90;;;;;;5117375;28;20266;-71
2022/08/29 07:17:34;;;;;;;0.57;0.57;;;12.80;99.90;;;;;;5116961;28;20198;-71
2022/08/29 07:19:59;;;;;;;0.60;0.60;;;13.00;99.90;;;;;;5117312;28;20199;-71
2022/08/29 07:22:25;;;;;;;0.50;0.50;;;13.10;99.90;;;;;;5094484;28;20215;-71
2022/08/29 07:24:52;;;;;;;0.50;0.50;;;13.20;99.90;;;;;;5096717;28;20200;-70
2022/08/29 07:27:18;;;;;;;0.50;0.50;;;13.30;99.90;;;;;;5089942;28;20620;-70
2022/08/29 07:29:44;;;;;;;0.50;0.50;;;13.30;99.90;;;;;;5096592;28;20192;-71
2022/08/29 07:32:10;;;;;;;0.95;0.63;;;13.50;99.90;;;;;;5096636;28;20275;-70
2022/08/29 07:34:35;;;;;;;0.50;0.50;;;13.70;99.90;;;;;;5109523;28;20257;-71
2022/08/29 07:37:03;;;;;;;0.50;0.50;;;13.70;99.90;;;;;;5098690;28;20207;-70
2022/08/29 07:39:29;;;;;;;0.65;0.55;;;13.80;99.90;;;;;;5101229;27;20242;-71
2022/08/29 07:41:57;;;;;;;0.47;0.47;;;14.00;99.90;;;;;;5137430;27;20195;-71
2022/08/29 07:44:23;;;;;;;0.43;0.43;;;13.90;99.90;;;;;;5118254;27;20691;-71
2022/08/29 07:46:54;;;;;;;0.60;0.60;;;14.10;99.90;;;;;;5136829;27;20230;-71
2022/08/29 07:49:20;;;;;;;0.85;0.60;;;14.20;99.90;;;;;;5118589;27;20183;-72
2022/08/29 07:51:46;;;;;;;0.50;0.50;;;14.30;99.90;;;;;;5118845;27;20240;-71
2022/08/29 07:54:15;;;;;;;0.60;0.60;;;14.30;99.90;;;;;;5137177;27;20183;-71
2022/08/29 07:56:41;;;;;;;0.40;0.40;;;14.30;99.90;;;;;;5118551;27;20222;-71
2022/08/29 07:59:07;;;;;;;0.30;0.30;;;14.50;99.90;;;;;;5118538;27;20242;-71
2022/08/29 08:01:34;;;;;;;0.40;0.40;;;14.60;99.90;;;;;;5117658;27;20203;-71
2022/08/29 08:04:00;;;;;;;0.40;0.40;;;14.60;99.90;;;;;;5136830;27;20552;-71
2022/08/29 08:06:26;;;;;;;0.40;0.40;;;14.70;99.90;;;;;;5136782;27;20649;-71
2022/08/29 08:08:56;;;;;;;0.60;0.60;;;14.70;99.90;;;;;;5118297;27;20205;-71
2022/08/29 08:11:24;;;;;;;0.50;0.50;;;14.90;99.90;;;;;;5118207;27;20673;-71
2022/08/29 08:13:51;;;;;;;0.40;0.40;;;15.10;99.90;;;;;;5136970;27;20189;-71
2022/08/29 08:16:19;;;;;;;0.40;0.40;;;15.50;99.90;;;;;;5118244;27;20268;-71
2022/08/29 08:18:45;;;;;;;0.40;0.40;;;15.40;99.90;;;;;;5132125;27;20556;-72
2022/08/29 08:21:30;;;;;;;0.40;0.40;;;15.60;99.90;;;;;;5116390;28;20248;-72
2022/08/29 08:23:56;;;;;;;0.35;0.35;;;15.60;99.90;;;;;;5116187;27;20678;-71
2022/08/29 08:26:22;;;;;;;0.40;0.40;;;15.80;99.90;;;;;;5115482;28;20196;-71
2022/08/29 08:28:48;;;;;;;0.40;0.40;;;15.90;99.90;;;;;;5115900;28;20211;-71
2022/08/29 08:31:15;;;;;;;0.40;0.40;;;16.10;99.90;;;;;;5132383;27;20286;-71
2022/08/29 08:33:43;;;;;;;0.40;0.40;;;16.30;99.90;;;;;;5136319;27;20222;-71
2022/08/29 08:36:13;;;;;;;0.40;0.40;;;16.70;99.90;;;;;;5117397;27;20195;-71
2022/08/29 08:38:39;;;;;;;0.60;0.60;;;17.10;99.90;;;;;;5135321;27;20284;-71
2022/08/29 08:41:16;;;;;;;0.40;0.40;;;17.00;99.90;;;;;;5136130;27;20190;-71
2022/08/29 08:43:49;;;;;;;0.32;0.32;;;16.90;99.90;;;;;;5136007;27;20560;-71
2022/08/29 08:46:16;;;;;;;0.30;0.30;;;16.80;99.90;;;;;;5117526;27;20240;-71
2022/08/29 08:48:44;;;;;;;0.30;0.30;;;16.70;99.90;;;;;;5135881;27;20206;-71
2022/08/29 08:51:25;;;;;;;0.30;0.30;;;16.50;99.90;;;;;;5136070;27;20187;-71
2022/08/29 08:53:56;;;;;;;0.30;0.30;;;16.40;99.90;;;;;;5117505;27;20206;-71
2022/08/29 08:56:29;;;;;;;0.30;0.30;;;16.60;99.90;;;;;;5135836;27;20244;-71
2022/08/29 08:59:22;;;;;;;0.30;0.30;;;16.70;99.90;;;;;;5135907;27;20187;-71
2022/08/29 09:02:00;;;;;;;0.30;0.30;;;17.00;99.90;;;;;;5117030;27;20233;-71
2022/08/29 09:05:04;;;;;;;0.30;0.30;;;17.20;99.90;;;;;;5135539;27;20226;-71
2022/08/29 09:07:53;;;;;;;0.30;0.30;;;17.40;99.90;;;;;;5135432;27;20255;-71
2022/08/29 09:10:31;;;;;;;0.30;0.30;;;17.50;99.90;;;;;;5135545;27;20194;-72
2022/08/29 09:13:10;;;;;;;0.30;0.30;;;17.60;99.90;;;;;;5134733;27;20186;-71
2022/08/29 09:15:49;;;;;;;0.35;0.35;;;17.70;99.90;;;;;;5106795;28;20194;-71
2022/08/29 09:18:27;;;;;;;0.30;0.30;;;17.80;99.90;;;;;;5115000;28;20245;-71
2022/08/29 09:20:53;;;;;;;0.30;0.30;;;17.70;99.90;;;;;;5114915;28;20193;-71
2022/08/29 09:23:33;;;;;;;0.30;0.30;;;17.80;99.90;;;;;;5114668;28;20188;-71
2022/08/29 09:25:58;;;;;;;0.30;0.30;;;17.60;99.90;;;;;;5118375;27;20198;-71
2022/08/29 09:28:25;;;;;;;0.30;0.30;;;17.60;99.90;;;;;;5116627;27;20217;-71
2022/08/29 09:31:24;;;;;;;0.30;0.30;;;17.70;99.90;;;;;;5116857;27;20190;-71
2022/08/29 09:33:58;;;;;;;0.30;0.30;;;17.80;99.90;;;;;;5116721;27;20649;-71
2022/08/29 09:36:44;;;;;;;0.30;0.30;;;17.60;99.90;;;;;;5116350;27;20186;-72
2022/08/29 09:39:18;;;;;;;0.40;0.40;;;17.80;99.90;;;;;;5134635;27;20215;-71
2022/08/29 09:41:47;;;;;;;0.30;0.30;;;17.90;99.90;;;;;;5134879;27;20562;-71
2022/08/29 09:44:19;;;;;;;0.30;0.30;;;18.10;99.90;;;;;;5134953;27;20186;-72
2022/08/29 09:46:45;;;;;;;0.30;0.30;;;18.40;99.90;;;;;;5134724;27;20667;-71
2022/08/29 09:49:12;;;;;;;0.30;0.30;;;18.40;99.90;;;;;;5134695;27;20183;-71
2022/08/29 09:51:42;;;;;;;0.60;0.60;;;18.30;99.90;;;;;;5116136;27;20218;-71
2022/08/29 09:54:34;;;;;;;0.20;0.20;;;18.10;99.90;;;;;;5116131;27;20565;-71
2022/08/29 09:57:03;;;;;;;0.30;0.30;;;18.10;99.90;;;;;;5111182;27;20234;-71
2022/08/29 09:59:32;;;;;;;2.20;0.50;;;18.00;99.90;;;;;;5134532;27;20190;-73
2022/08/29 10:02:16;;;;;;;0.28;0.28;;;18.30;99.90;;;;;;5134120;27;20195;-72
2022/08/29 10:04:45;;;;;;;0.35;0.32;;;18.80;99.90;;;;;;5116033;27;20668;-71
2022/08/29 10:07:28;;;;;;;0.65;0.50;;;19.00;99.90;;;;;;5115980;27;20199;-71
2022/08/29 10:09:59;;;;;;;0.30;0.30;;;18.80;99.90;;;;;;5134470;27;20186;-71
2022/08/29 10:12:31;;;;;;;0.40;0.40;;;18.90;99.90;;;;;;5119444;27;20307;-71
2022/08/29 10:15:02;;;;;;;2.40;0.52;;;18.80;99.90;;;;;;5113969;28;20194;-72
2022/08/29 10:20:46;;;;;;;0.30;0.30;;;18.80;99.90;;;;;;5124362;27;20588;-71
2022/08/29 10:23:37;;;;;;;4.95;0.85;;;19.00;99.90;;;;;;5134114;27;20544;-71
2022/08/29 10:26:25;;;;;;;0.85;0.85;;;19.40;99.90;;;;;;5088039;28;20230;-71
2022/08/29 10:29:29;;;;;;;0.30;0.30;;;19.50;99.90;;;;;;5115494;28;20206;-70
2022/08/29 10:32:19;;;;;;;0.20;0.20;;;19.60;99.90;;;;;;5133929;28;20201;-71
2022/08/29 10:34:47;;;;;;;0.30;0.30;;;20.10;99.90;;;;;;5115238;28;20238;-70
2022/08/29 10:37:32;;;;;;;0.20;0.20;;;19.60;99.90;;;;;;5134229;28;20205;-71
2022/08/29 10:40:09;;;;;;;0.20;0.20;;;20.00;99.90;;;;;;5134183;28;20202;-72
2022/08/29 10:42:38;;;;;;;0.20;0.20;;;20.00;99.90;;;;;;5133989;28;20274;-72
2022/08/29 10:45:35;;;;;;;0.30;0.30;;;20.30;99.90;;;;;;5115584;28;20331;-72
2022/08/29 10:48:56;;;;;;;0.52;0.40;;;20.40;99.90;;;;;;5134077;28;20207;-72
2022/08/29 10:51:37;;;;;;;0.30;0.30;;;20.30;99.90;;;;;;5088322;28;20211;-71
2022/08/29 10:54:25;;;;;;;0.20;0.20;;;20.40;99.90;;;;;;5134083;28;20217;-72
2022/08/29 10:56:52;;;;;;;0.20;0.20;;;20.60;99.90;;;;;;5133977;28;20213;-72
2022/08/29 10:59:33;;;;;;;0.43;0.30;;;20.90;99.90;;;;;;5133855;28;20187;-71
2022/08/29 11:02:10;;;;;;;0.20;0.20;;;21.10;99.90;;;;;;5115344;28;20252;-71
2022/08/29 11:04:40;;;;;;;0.20;0.20;;;21.00;99.90;;;;;;5133586;28;20190;-71
2022/08/29 11:07:27;;;;;;;0.20;0.20;;;21.00;99.90;;;;;;5113715;28;20618;-72
2022/08/29 11:10:19;;;;;;;0.20;0.20;;;21.30;99.90;;;;;;5095047;28;20262;-71
2022/08/29 11:12:50;;;;;;;0.20;0.20;;;21.50;99.90;;;;;;5083731;28;20723;-71
2022/08/29 11:15:26;;;;;;;0.20;0.20;;;21.10;99.90;;;;;;5116254;28;20252;-71
2022/08/29 11:18:07;;;;;;;0.20;0.20;;;20.40;99.90;;;;;;5133583;28;20200;-71
2022/08/29 11:20:40;;;;;;;0.65;0.35;;;20.40;99.90;;;;;;5112997;28;20685;-71
2022/08/29 11:23:09;;;;;;;0.20;0.20;;;20.80;99.90;;;;;;5113206;28;20195;-71
2022/08/29 11:25:40;;;;;;;0.50;0.50;;;21.20;99.90;;;;;;5094792;28;20253;-71
2022/08/29 11:28:10;;;;;;;0.40;0.40;;;21.40;99.90;;;;;;5133312;28;20636;-71
2022/08/29 11:30:36;;;;;;;0.20;0.20;;;21.40;99.90;;;;;;5103620;28;20196;-71
2022/08/29 11:33:20;;;;;;;0.40;0.40;;;21.60;99.90;;;;;;5112446;28;20196;-71
2022/08/29 11:36:19;;;;;;;0.20;0.20;;;21.80;99.90;;;;;;5131102;27;20199;-71
2022/08/29 11:38:50;;;;;;;0.28;0.28;;;22.00;99.90;;;;;;5054364;28;20232;-72
2022/08/29 11:41:22;;;;;;;0.20;0.20;;;21.90;99.90;;;;;;5083609;28;20257;-71
2022/08/29 11:43:52;;;;;;;0.28;0.28;;;21.80;99.90;;;;;;5096001;28;20192;-71
2022/08/29 11:46:35;;;;;;;0.20;0.20;;;21.60;99.90;;;;;;5095930;28;20192;-71
2022/08/29 11:49:25;;;;;;;0.45;0.32;;;21.60;99.90;;;;;;5096245;28;20224;-71
2022/08/29 11:51:58;;;;;;;0.20;0.20;;;21.50;99.90;;;;;;5094515;28;20200;-71
2022/08/29 11:54:27;;;;;;;0.20;0.20;;;21.50;99.90;;;;;;5091094;28;20220;-71
2022/08/29 11:56:59;;;;;;;0.25;0.25;;;21.20;99.90;;;;;;5074273;28;20215;-71
2022/08/29 11:59:47;;;;;;;0.15;0.15;;;21.10;99.90;;;;;;5075348;28;20189;-71
2022/08/29 12:02:30;;;;;;;0.20;0.20;;;21.50;99.90;;;;;;5075473;28;20189;-71
2022/08/29 12:05:02;;;;;;;0.20;0.20;;;21.40;99.90;;;;;;5075442;28;20185;-71
2022/08/29 12:07:36;;;;;;;0.20;0.20;;;21.60;99.90;;;;;;5077807;28;20196;-71
2022/08/29 12:10:09;;;;;;;0.20;0.20;;;21.50;99.50;;;;;;5095677;28;20198;-71
2022/08/29 12:12:42;;;;;;;0.20;0.20;;;21.60;99.90;;;;;;5095036;28;20200;-71
2022/08/29 12:15:26;;;;;;;0.30;0.30;;;21.50;98.80;;;;;;5095470;28;20610;-71
2022/08/29 12:18:06;;;;;;;0.10;0.10;;;21.90;99.90;;;;;;5095317;28;20701;-71
2022/08/29 12:20:35;;;;;;;0.20;0.20;;;21.80;99.30;;;;;;5095329;28;20666;-71
2022/08/29 12:23:09;;;;;;;0.20;0.20;;;21.60;99.60;;;;;;5095292;28;20274;-71
2022/08/29 12:25:55;;;;;;;0.20;0.20;;;21.70;99.90;;;;;;5094969;28;20202;-71
2022/08/29 12:28:20;;;;;;;0.20;0.20;;;21.80;98.80;;;;;;5094744;28;20617;-71
2022/08/29 12:31:03;;;;;;;0.10;0.10;;;21.80;99.60;;;;;;5095119;28;20223;-71
2022/08/29 12:33:53;;;;;;;0.30;0.30;;;21.80;99.90;;;;;;5094851;28;20270;-71
2022/08/29 12:36:46;;;;;;;0.20;0.20;;;21.80;98.80;;;;;;5094774;28;20196;-71
2022/08/29 12:39:32;;;;;;;0.35;0.35;;;21.50;99.90;;;;;;5128582;27;20271;-71
2022/08/29 12:42:20;;;;;;;0.28;0.28;;;21.50;99.80;;;;;;5129144;27;20195;-71
2022/08/29 12:44:57;;;;;;;0.20;0.20;;;21.50;99.00;;;;;;5096895;28;20195;-71
2022/08/29 12:47:37;;;;;;;0.40;0.40;;;21.40;98.70;;;;;;5096444;28;20215;-71
2022/08/29 12:50:13;;;;;;;0.20;0.20;;;21.10;99.40;;;;;;5131197;27;20205;-71
2022/08/29 12:52:39;;;;;;;0.20;0.20;;;21.00;99.90;;;;;;5116812;27;20198;-71
2022/08/29 12:55:22;;;;;;;0.25;0.25;;;20.90;99.40;;;;;;5135441;27;20203;-72
2022/08/29 12:57:49;;;;;;;0.20;0.20;;;21.00;99.90;;;;;;5116917;27;20665;-71
2022/08/29 13:00:26;;;;;;;3.85;0.60;;;21.00;99.90;;;;;;5135366;27;20243;-71
2022/08/29 13:02:59;;;;;;;0.20;0.20;;;21.10;99.40;;;;;;5135272;27;20214;-71
2022/08/29 13:05:25;;;;;;;0.20;0.20;;;20.90;99.90;;;;;;5135066;27;20596;-71
2022/08/29 13:07:57;;;;;;;0.20;0.20;;;20.80;99.90;;;;;;5135136;27;20207;-71
2022/08/29 13:10:23;;;;;;;0.20;0.20;;;21.00;99.00;;;;;;5134971;27;20735;-72
2022/08/29 13:12:49;;;;;;;0.35;0.30;;;20.80;99.30;;;;;;5116564;27;20676;-72